Time;durP1;ratioP1;P1;durP2;ratioP2;P2;SDS_P1;SDS_P2;PMS_P1;PMS_P2;Temp;Humidity;BMP_temperature;BMP_pressure;BME280_temperature;BME280_humidity;BME280_pressure;Samples;Min_cycle;Max_cycle;Signal;HPM_P1;HPM_P2
2021/03/02 00:00:09;;;;;;;13.63;10.15;;;;;;;4.31;67.99;96630.91;4991487;28;20030;-65
2021/03/02 00:02:35;;;;;;;16.80;10.77;;;;;;;4.26;68.48;96636.03;4992454;28;20038;-65
2021/03/02 00:05:02;;;;;;;16.73;10.77;;;;;;;3.87;68.75;96587.41;4991251;28;20716;-65
2021/03/02 00:07:27;;;;;;;19.98;10.27;;;;;;;3.88;69.35;96591.66;4992335;28;20038;-63
2021/03/02 00:09:53;;;;;;;14.65;10.63;;;;;;;4.03;68.84;96614.91;4994654;28;20026;-64
2021/03/02 00:12:19;;;;;;;15.25;10.73;;;;;;;3.85;68.60;96595.53;4992344;28;20385;-64
2021/03/02 00:14:44;;;;;;;15.93;10.60;;;;;;;4.08;68.67;96655.34;5007528;28;20515;-63
2021/03/02 00:17:36;;;;;;;15.88;11.23;;;;;;;3.66;68.91;96567.69;4992117;28;20046;-65
2021/03/02 00:20:06;;;;;;;17.05;10.75;;;;;;;3.49;68.78;96543.84;4992321;28;20141;-65
2021/03/02 00:22:40;;;;;;;17.08;11.05;;;;;;;3.98;68.90;96631.38;4990870;28;20042;-63
2021/03/02 00:25:06;;;;;;;20.42;11.77;;;;;;;3.77;69.02;96601.13;4994405;28;20027;-65
2021/03/02 00:27:34;;;;;;;19.27;11.32;;;;;;;3.71;68.81;96596.75;4991941;28;20041;-63
2021/03/02 00:30:01;;;;;;;18.85;12.57;;;;;;;3.87;68.60;96635.59;4992142;28;20038;-63
2021/03/02 00:32:27;;;;;;;14.20;10.38;;;;;;;3.86;69.31;96636.63;4991883;28;20031;-63
2021/03/02 00:34:52;;;;;;;16.35;11.43;;;;;;;3.70;69.44;96603.06;4990904;28;20108;-64
2021/03/02 00:37:18;;;;;;;17.15;10.93;;;;;;;3.75;69.34;96624.25;4991764;28;20030;-65
2021/03/02 00:39:43;;;;;;;18.73;11.32;;;;;;;3.70;69.47;96625.94;5009083;28;20023;-64
2021/03/02 00:42:09;;;;;;;18.85;11.68;;;;;;;3.84;69.75;96637.91;4990431;28;20467;-64
2021/03/02 00:44:35;;;;;;;16.15;10.43;;;;;;;3.51;69.41;96589.13;5006892;28;20404;-64
2021/03/02 00:47:01;;;;;;;16.85;10.63;;;;;;;3.82;69.65;96639.94;4991355;28;20041;-63
2021/03/02 00:49:26;;;;;;;16.33;9.93;;;;;;;3.80;69.51;96637.53;5004027;23;20125;-70
2021/03/02 00:51:52;;;;;;;14.15;10.10;;;;;;;3.73;69.36;96622.84;4993659;28;20430;-71
2021/03/02 00:54:17;;;;;;;17.58;10.75;;;;;;;3.75;70.09;96631.34;4991904;28;20615;-70
2021/03/02 00:56:43;;;;;;;14.57;10.73;;;;;;;3.67;71.34;96631.63;4991691;28;20038;-69
2021/03/02 00:59:08;;;;;;;17.33;10.52;;;;;;;3.69;70.86;96614.63;4991679;28;20069;-71
2021/03/02 01:01:34;;;;;;;15.35;10.13;;;;;;;3.75;71.01;96631.34;4991609;28;20035;-70
2021/03/02 01:04:00;;;;;;;21.38;11.18;;;;;;;3.44;71.15;96598.97;4993758;28;20110;-70
2021/03/02 01:06:25;;;;;;;15.05;10.88;;;;;;;3.55;71.17;96616.63;4991835;28;20172;-70
2021/03/02 01:08:50;;;;;;;15.65;10.75;;;;;;;3.62;72.00;96625.22;4991179;28;20058;-71
2021/03/02 01:11:16;;;;;;;15.43;10.25;;;;;;;3.48;71.89;96608.03;4991285;28;20031;-70
2021/03/02 01:13:41;;;;;;;16.65;10.90;;;;;;;3.51;71.75;96625.97;4973992;28;20200;-71
2021/03/02 01:16:07;;;;;;;17.00;10.75;;;;;;;3.63;70.99;96615.47;4993541;28;20034;-71
2021/03/02 01:18:32;;;;;;;15.88;10.35;;;;;;;3.58;70.97;96620.63;4973765;28;20297;-70
2021/03/02 01:20:57;;;;;;;14.43;9.93;;;;;;;3.61;70.24;96620.97;4991331;28;20121;-71
2021/03/02 01:23:23;;;;;;;21.48;11.73;;;;;;;3.49;71.35;96624.59;4991342;28;20129;-71
2021/03/02 01:25:48;;;;;;;16.42;11.15;;;;;;;3.56;70.86;96622.69;4974258;28;20050;-71
2021/03/02 01:28:13;;;;;;;13.65;10.10;;;;;;;3.43;70.72;96601.78;4972527;28;20373;-71
2021/03/02 01:30:39;;;;;;;15.73;10.80;;;;;;;3.26;71.20;96593.72;4993376;28;20500;-71
2021/03/02 01:33:05;;;;;;;18.58;11.45;;;;;;;3.40;70.85;96600.41;4973581;28;20505;-70
2021/03/02 01:35:31;;;;;;;15.18;10.50;;;;;;;3.39;70.73;96612.78;4990980;28;20039;-70
2021/03/02 01:37:56;;;;;;;16.70;11.70;;;;;;;3.40;71.47;96616.22;4989412;28;20053;-70
2021/03/02 01:40:23;;;;;;;17.02;10.23;;;;;;;3.37;70.88;96616.63;4991080;28;20026;-70
2021/03/02 01:42:48;;;;;;;14.75;11.18;;;;;;;3.40;71.22;96618.84;4992779;28;20038;-71
2021/03/02 01:45:17;;;;;;;16.67;11.20;;;;;;;3.37;71.99;96616.63;4991081;28;20049;-70
2021/03/02 01:47:43;;;;;;;14.60;11.07;;;;;;;3.30;71.61;96610.66;4990189;28;20133;-70
2021/03/02 01:50:11;;;;;;;15.80;10.55;;;;;;;3.29;71.86;96609.06;4990957;28;20473;-72
2021/03/02 01:52:36;;;;;;;16.25;10.82;;;;;;;3.21;71.54;96589.13;4973140;28;20042;-72
2021/03/02 01:55:04;;;;;;;16.15;11.27;;;;;;;3.24;71.84;96608.94;4993567;28;20030;-70
2021/03/02 01:57:30;;;;;;;16.27;10.15;;;;;;;2.91;74.85;96604.03;4991185;28;20042;-70
2021/03/02 01:59:55;;;;;;;17.02;10.85;;;;;;;3.23;72.57;96613.38;4990674;28;20050;-70
2021/03/02 02:02:37;;;;;;;17.38;10.45;;;;;;;3.23;72.17;96612.59;4973192;28;20049;-70
2021/03/02 02:05:06;;;;;;;18.33;10.98;;;;;;;3.27;71.79;96616.34;4973174;28;20558;-73
2021/03/02 02:07:36;;;;;;;18.45;11.65;;;;;;;3.18;71.78;96607.19;4972685;28;20038;-70
2021/03/02 02:10:06;;;;;;;19.20;11.60;;;;;;;3.21;71.89;96612.00;4992446;28;20113;-70
2021/03/02 02:12:42;;;;;;;22.65;11.18;;;;;;;3.17;71.74;96616.06;4990303;28;20476;-70
2021/03/02 02:15:10;;;;;;;16.52;11.10;;;;;;;3.12;72.24;96614.09;4990620;28;20390;-70
2021/03/02 02:17:55;;;;;;;20.65;12.65;;;;;;;3.06;72.21;96607.91;4972836;28;20065;-70
2021/03/02 02:20:46;;;;;;;17.48;10.88;;;;;;;3.06;71.57;96615.78;4990418;28;20125;-69
2021/03/02 02:23:14;;;;;;;16.58;11.93;;;;;;;2.99;71.81;96612.44;4990156;28;20048;-70
2021/03/02 02:26:17;;;;;;;17.05;12.27;;;;;;;2.94;71.85;96614.94;4990465;28;20120;-70
2021/03/02 02:28:43;;;;;;;22.98;12.98;;;;;;;2.74;71.89;96596.75;4990140;28;20404;-70
2021/03/02 02:31:10;;;;;;;25.05;13.98;;;;;;;2.72;71.64;96609.31;4992506;28;20033;-70
2021/03/02 02:33:39;;;;;;;23.30;14.25;;;;;;;2.69;71.60;96616.81;4973372;28;20173;-70
2021/03/02 02:36:07;;;;;;;20.90;13.27;;;;;;;2.66;72.02;96620.66;4990346;28;20038;-70
2021/03/02 02:38:35;;;;;;;21.20;12.57;;;;;;;2.55;72.21;96610.88;4990035;28;20046;-70
2021/03/02 02:41:02;;;;;;;22.58;13.13;;;;;;;2.54;71.67;96617.16;4972797;28;20042;-70
2021/03/02 02:43:28;;;;;;;23.48;13.27;;;;;;;2.49;72.31;96615.19;4971242;28;20030;-71
2021/03/02 02:45:55;;;;;;;17.48;12.48;;;;;;;2.36;72.33;96604.81;4991870;28;20035;-73
2021/03/02 02:48:21;;;;;;;23.85;14.43;;;;;;;2.36;72.02;96615.31;4971955;28;20482;-71
2021/03/02 02:50:49;;;;;;;24.60;13.43;;;;;;;2.36;72.20;96625.00;4989882;28;20039;-71
2021/03/02 02:53:15;;;;;;;25.55;14.10;;;;;;;2.28;72.24;96610.31;4989686;28;20053;-71
2021/03/02 02:55:53;;;;;;;27.50;13.35;;;;;;;2.27;72.85;96619.22;4989829;28;20582;-71
2021/03/02 02:58:24;;;;;;;25.52;13.68;;;;;;;2.16;72.56;96604.97;4989450;28;20073;-70
2021/03/02 03:00:52;;;;;;;21.53;12.93;;;;;;;2.23;72.88;96616.22;4991776;28;20034;-70
2021/03/02 03:03:21;;;;;;;21.00;12.85;;;;;;;2.18;73.14;96616.06;4971996;28;20273;-70
2021/03/02 03:05:55;;;;;;;22.98;14.00;;;;;;;2.21;73.05;96622.72;4989525;28;20449;-70
2021/03/02 03:08:23;;;;;;;20.63;13.18;;;;;;;1.93;72.82;96573.25;4987954;28;20125;-70
2021/03/02 03:10:51;;;;;;;25.67;13.52;;;;;;;2.15;72.97;96624.38;4972400;28;20047;-70
2021/03/02 03:13:23;;;;;;;23.42;12.95;;;;;;;2.03;72.98;96619.00;4971469;28;20121;-70
2021/03/02 03:15:51;;;;;;;22.60;13.10;;;;;;;2.00;72.73;96616.81;4974205;28;20023;-70
2021/03/02 03:18:20;;;;;;;26.13;14.00;;;;;;;2.04;72.96;96630.28;4971634;28;20097;-70
2021/03/02 03:20:49;;;;;;;24.05;12.57;;;;;;;1.91;72.85;96618.09;4989485;28;20049;-70
2021/03/02 03:23:15;;;;;;;20.13;12.35;;;;;;;1.91;72.76;96625.16;4989322;28;20059;-71
2021/03/02 03:25:40;;;;;;;22.23;13.27;;;;;;;1.85;72.60;96624.19;4989442;28;20042;-70
2021/03/02 03:28:06;;;;;;;22.77;13.77;;;;;;;1.79;72.66;96612.72;4990963;28;20644;-70
2021/03/02 03:30:34;;;;;;;27.33;12.68;;;;;;;1.77;73.23;96617.34;4989442;28;20040;-70
2021/03/02 03:33:04;;;;;;;23.42;13.32;;;;;;;1.76;73.86;96625.44;4989144;28;20396;-71
2021/03/02 03:35:29;;;;;;;24.42;13.02;;;;;;;1.73;73.96;96620.59;4989416;28;20443;-70
2021/03/02 03:37:55;;;;;;;21.77;13.10;;;;;;;1.76;74.28;96620.19;4989059;28;20034;-70
2021/03/02 03:40:21;;;;;;;30.75;13.73;;;;;;;1.81;74.44;96617.75;4988851;28;20026;-71
2021/03/02 03:42:47;;;;;;;23.05;14.05;;;;;;;1.80;74.49;96616.94;4990807;28;20476;-72
2021/03/02 03:45:13;;;;;;;27.73;13.93;;;;;;;1.90;74.90;96624.34;4987864;28;20105;-71
2021/03/02 03:47:39;;;;;;;25.42;15.43;;;;;;;1.85;74.24;96618.94;4988039;28;20042;-71
2021/03/02 03:50:05;;;;;;;19.80;12.40;;;;;;;1.87;74.41;96624.75;4988907;28;20039;-71
2021/03/02 03:52:33;;;;;;;25.38;12.55;;;;;;;1.77;74.43;96622.59;4988652;28;20042;-70
2021/03/02 03:55:00;;;;;;;23.65;14.38;;;;;;;1.84;74.28;96630.41;4991210;28;20520;-71
2021/03/02 03:57:27;;;;;;;25.98;13.07;;;;;;;1.82;74.45;96635.09;4971364;28;20068;-70
2021/03/02 03:59:54;;;;;;;24.50;13.15;;;;;;;1.79;74.79;96625.84;4989184;28;20039;-71
2021/03/02 04:02:20;;;;;;;27.00;13.40;;;;;;;1.86;75.23;96633.66;4971411;28;20102;-70
2021/03/02 04:04:47;;;;;;;16.17;12.35;;;;;;;1.91;75.52;96639.06;4989002;28;20129;-70
2021/03/02 04:07:13;;;;;;;25.20;13.40;;;;;;;1.82;75.39;96620.16;4988450;28;20036;-71
2021/03/02 04:09:39;;;;;;;21.83;13.63;;;;;;;1.99;75.08;96630.91;4990943;28;20023;-71
2021/03/02 04:12:05;;;;;;;22.88;12.90;;;;;;;1.95;74.91;96631.59;4988867;28;20034;-71
2021/03/02 04:14:32;;;;;;;17.42;11.85;;;;;;;1.96;74.59;96627.94;4989267;28;20035;-71
2021/03/02 04:16:57;;;;;;;23.38;12.13;;;;;;;1.93;74.17;96636.22;4988785;28;20065;-71
2021/03/02 04:19:23;;;;;;;19.13;13.30;;;;;;;1.90;74.40;96641.91;4989055;28;20030;-70
2021/03/02 04:21:48;;;;;;;20.73;13.75;;;;;;;1.78;73.87;96629.44;4990634;28;20053;-71
2021/03/02 04:24:13;;;;;;;17.35;12.00;;;;;;;1.72;73.82;96624.25;4988665;28;20038;-71
2021/03/02 04:26:39;;;;;;;23.80;13.38;;;;;;;1.61;74.24;96607.38;4992278;28;20396;-71
2021/03/02 04:29:04;;;;;;;22.58;12.32;;;;;;;1.52;73.95;96606.81;4974558;28;20690;-71
2021/03/02 04:31:29;;;;;;;25.23;13.90;;;;;;;1.64;74.00;96627.94;4990974;28;20038;-71
2021/03/02 04:33:54;;;;;;;23.10;13.82;;;;;;;1.68;74.07;96636.19;4994425;28;20042;-72
2021/03/02 04:36:20;;;;;;;20.88;12.82;;;;;;;1.60;74.07;96634.63;4992356;28;20042;-70
2021/03/02 04:38:45;;;;;;;33.58;15.38;;;;;;;1.59;74.05;96643.50;4991966;28;20089;-71
2021/03/02 04:41:12;;;;;;;22.95;13.18;;;;;;;1.51;73.85;96643.75;4992300;28;20121;-71
2021/03/02 04:43:38;;;;;;;23.98;13.32;;;;;;;1.43;74.18;96641.34;4992459;28;20062;-71
2021/03/02 04:46:03;;;;;;;25.98;13.82;;;;;;;1.44;74.14;96643.78;4994058;28;20027;-72
2021/03/02 04:48:28;;;;;;;26.38;13.55;;;;;;;1.37;74.64;96637.75;4991787;28;20051;-71
2021/03/02 04:50:54;;;;;;;20.48;12.52;;;;;;;1.35;74.42;96641.59;4991960;28;20038;-71
2021/03/02 04:53:19;;;;;;;23.65;14.02;;;;;;;1.34;74.10;96642.63;4991857;28;20026;-71
2021/03/02 04:55:44;;;;;;;27.00;13.77;;;;;;;1.33;74.06;96644.41;4991993;28;20034;-70
2021/03/02 04:58:10;;;;;;;29.05;14.23;;;;;;;1.28;74.04;96649.50;4991695;28;20488;-71
2021/03/02 05:00:35;;;;;;;32.05;14.02;;;;;;;1.21;74.01;96649.50;4994087;28;20381;-71
2021/03/02 05:03:00;;;;;;;27.25;13.88;;;;;;;0.86;74.19;96606.28;4974200;28;20066;-71
2021/03/02 05:05:26;;;;;;;32.58;14.63;;;;;;;1.13;73.86;96652.38;4991674;28;20034;-71
2021/03/02 05:07:51;;;;;;;31.05;15.32;;;;;;;1.05;74.26;96649.97;4991315;28;20053;-71
2021/03/02 05:10:17;;;;;;;27.52;13.85;;;;;;;1.09;74.10;96659.03;4991665;28;20037;-71
2021/03/02 05:12:42;;;;;;;34.08;15.32;;;;;;;1.01;74.11;96656.63;4993458;28;20120;-71
2021/03/02 05:15:08;;;;;;;24.33;13.43;;;;;;;1.03;74.54;96671.16;4974077;28;20445;-70
2021/03/02 05:17:33;;;;;;;27.30;14.30;;;;;;;0.93;74.27;96657.69;4991261;28;20408;-70
2021/03/02 05:19:58;;;;;;;36.78;16.08;;;;;;;0.95;74.41;96660.88;4991497;28;20058;-71
2021/03/02 05:22:24;;;;;;;28.48;15.00;;;;;;;0.95;74.49;96671.38;4991234;28;20026;-71
2021/03/02 05:24:49;;;;;;;26.92;14.20;;;;;;;0.89;74.33;96661.72;4975928;28;20030;-70
2021/03/02 05:27:14;;;;;;;29.55;16.05;;;;;;;0.92;74.48;96665.72;4991040;28;20137;-69
2021/03/02 05:29:40;;;;;;;31.60;15.10;;;;;;;0.79;74.59;96653.47;4991161;28;20076;-70
2021/03/02 05:32:05;;;;;;;31.55;14.90;;;;;;;0.82;74.44;96670.56;4990920;28;20712;-70
2021/03/02 05:34:31;;;;;;;25.08;13.60;;;;;;;0.77;74.63;96669.41;4991205;28;20073;-70
2021/03/02 05:36:57;;;;;;;22.10;12.90;;;;;;;0.79;74.73;96666.56;4992587;28;20468;-69
2021/03/02 05:39:22;;;;;;;23.42;13.50;;;;;;;0.77;75.03;96658.94;4991182;28;20039;-71
2021/03/02 05:41:48;;;;;;;20.10;12.65;;;;;;;0.82;75.15;96666.16;4990994;28;20031;-69
2021/03/02 05:44:13;;;;;;;25.00;14.10;;;;;;;0.84;75.26;96669.38;4973538;28;20049;-69
2021/03/02 05:46:41;;;;;;;24.27;14.13;;;;;;;0.80;74.73;96668.19;4990738;28;20425;-69
2021/03/02 05:49:12;;;;;;;31.75;15.20;;;;;;;0.80;75.24;96662.94;4992802;28;20057;-71
2021/03/02 05:51:39;;;;;;;25.58;13.98;;;;;;;0.75;74.62;96660.13;4973588;28;20042;-70
2021/03/02 05:54:09;;;;;;;31.10;14.57;;;;;;;0.83;74.88;96677.44;4990899;28;20035;-71
2021/03/02 05:56:39;;;;;;;29.88;15.77;;;;;;;0.85;74.61;96675.41;4990667;28;20143;-71
2021/03/02 05:59:04;;;;;;;27.05;13.75;;;;;;;0.77;74.64;96664.16;4972949;28;20551;-71
2021/03/02 06:01:30;;;;;;;21.48;13.18;;;;;;;0.86;74.69;96684.88;4972811;28;20173;-70
2021/03/02 06:03:55;;;;;;;29.52;14.82;;;;;;;0.83;74.50;96675.63;4992483;28;20061;-70
2021/03/02 06:06:21;;;;;;;31.23;16.08;;;;;;;0.86;74.55;96688.31;4990399;28;20046;-70
2021/03/02 06:08:46;;;;;;;22.20;13.63;;;;;;;0.75;74.45;96665.34;4990406;28;20042;-70
2021/03/02 06:11:31;;;;;;;32.25;15.00;;;;;;;0.88;74.43;96682.88;4990236;28;20092;-71
2021/03/02 06:14:17;;;;;;;23.77;14.43;;;;;;;0.89;74.49;96681.88;4990337;28;20049;-71
2021/03/02 06:16:46;;;;;;;23.48;14.18;;;;;;;0.84;74.51;96674.63;4990314;28;20078;-73
2021/03/02 06:19:12;;;;;;;26.85;14.10;;;;;;;0.93;74.28;96680.47;4972844;28;20022;-70
2021/03/02 06:21:37;;;;;;;27.73;14.10;;;;;;;0.91;74.44;96674.59;4991937;28;20457;-70
2021/03/02 06:24:02;;;;;;;22.42;14.50;;;;;;;1.02;74.32;96681.81;4990200;28;20049;-74
2021/03/02 06:26:28;;;;;;;23.60;14.27;;;;;;;1.00;74.49;96682.03;4990436;28;20046;-71
2021/03/02 06:29:00;;;;;;;25.38;14.82;;;;;;;1.09;74.22;96694.94;4990675;28;20551;-76
2021/03/02 06:31:36;;;;;;;27.85;14.95;;;;;;;1.05;74.94;96697.16;4990159;28;20113;-75
2021/03/02 06:34:22;;;;;;;20.55;13.95;;;;;;;1.19;75.37;96700.53;4993731;28;20114;-69
2021/03/02 06:36:53;;;;;;;34.83;16.42;;;;;;;1.29;74.55;96688.63;4989782;28;20131;-72
2021/03/02 06:39:27;;;;;;;28.33;16.45;;;;;;;1.35;74.00;96697.47;4973947;28;20050;-71
2021/03/02 06:42:08;;;;;;;40.95;15.90;;;;;;;1.41;73.63;96699.25;4990025;28;20548;-68
2021/03/02 06:44:33;;;;;;;31.15;15.57;;;;;;;1.41;73.31;96690.59;4990565;28;20038;-71
2021/03/02 06:46:58;;;;;;;34.60;16.08;;;;;;;1.45;73.24;96692.59;4973888;28;20077;-76
2021/03/02 06:49:37;;;;;;;32.10;15.43;;;;;;;1.45;73.29;96692.59;4975067;28;20041;-79
2021/03/02 06:52:17;;;;;;;27.65;15.70;;;;;;;1.52;73.14;96695.97;4995365;28;20025;-76
2021/03/02 06:54:45;;;;;;;29.38;15.30;;;;;;;1.58;73.02;96698.78;4975352;28;20046;-74
2021/03/02 06:57:10;;;;;;;23.35;12.73;;;;;;;1.67;72.90;96706.19;4992564;28;20050;-78
2021/03/02 06:59:35;;;;;;;22.13;13.43;;;;;;;1.81;73.06;96720.06;4994666;28;20441;-75
2021/03/02 07:02:01;;;;;;;20.50;12.85;;;;;;;1.83;72.78;96707.53;4990366;28;20076;-73
2021/03/02 07:04:30;;;;;;;23.17;14.57;;;;;;;1.90;72.50;96715.38;4993397;28;20065;-76
2021/03/02 07:07:01;;;;;;;28.75;13.82;;;;;;;1.92;73.02;96708.91;4974207;28;20026;-70
2021/03/02 07:09:28;;;;;;;26.00;14.77;;;;;;;1.90;72.89;96691.78;4970177;28;20083;-70
2021/03/02 07:12:01;;;;;;;19.38;12.57;;;;;;;2.22;72.38;96732.75;4989059;28;20125;-71
2021/03/02 07:14:27;;;;;;;20.52;12.32;;;;;;;1.94;72.81;96682.44;4971586;28;20046;-70
2021/03/02 07:16:53;;;;;;;21.83;12.88;;;;;;;2.21;72.78;96696.22;4988853;28;20505;-71
2021/03/02 07:19:23;;;;;;;25.58;13.50;;;;;;;2.32;72.27;96696.31;4989138;28;20101;-71
2021/03/02 07:21:50;;;;;;;19.35;12.63;;;;;;;2.32;71.62;96664.03;4991251;28;20027;-72
2021/03/02 07:24:19;;;;;;;13.07;11.50;;;;;;;2.75;71.82;96721.03;4963844;28;20043;-71
2021/03/02 07:26:49;;;;;;;16.75;11.40;;;;;;;2.76;71.86;96705.06;4967682;28;20512;-71
2021/03/02 07:29:14;;;;;;;20.15;11.93;;;;;;;2.84;71.52;96698.72;4949834;28;20039;-71
2021/03/02 07:31:41;;;;;;;18.10;12.25;;;;;;;3.00;70.99;96719.19;4969281;28;20557;-73
2021/03/02 07:34:10;;;;;;;24.38;12.30;;;;;;;3.19;71.14;96727.13;4954277;28;20047;-71
2021/03/02 07:36:40;;;;;;;18.38;12.90;;;;;;;3.37;70.56;96732.38;4969678;28;20035;-73
2021/03/02 07:39:17;;;;;;;15.45;11.82;;;;;;;3.48;70.64;96733.47;4969428;28;20081;-74
2021/03/02 07:41:47;;;;;;;17.02;11.23;;;;;;;3.42;70.10;96700.16;4951614;28;20119;-73
2021/03/02 07:44:13;;;;;;;15.07;11.27;;;;;;;3.35;69.92;96679.19;4969231;28;20038;-74
2021/03/02 07:46:39;;;;;;;15.13;11.38;;;;;;;3.78;69.61;96738.78;4969325;28;20046;-71
2021/03/02 07:49:23;;;;;;;14.15;11.13;;;;;;;3.89;69.91;96738.06;4954055;28;20074;-73
2021/03/02 07:52:01;;;;;;;16.77;12.05;;;;;;;4.00;69.27;96737.28;4952291;28;20036;-73
2021/03/02 07:54:30;;;;;;;16.10;11.70;;;;;;;3.80;69.12;96737.53;4952049;28;20039;-71
2021/03/02 07:57:26;;;;;;;15.85;10.70;;;;;;;4.08;69.16;96739.59;4969265;28;20112;-78
2021/03/02 08:00:13;;;;;;;14.95;10.85;;;;;;;4.29;69.17;96751.47;4947925;28;20041;-81
2021/03/02 08:02:38;;;;;;;12.82;10.38;;;;;;;4.30;68.48;96723.28;4974325;28;20409;-71
2021/03/02 08:05:29;;;;;;;12.73;10.52;;;;;;;4.52;68.08;96742.03;4974662;28;20042;-72
2021/03/02 08:08:24;;;;;;;15.77;11.55;;;;;;;4.67;67.69;96745.84;4973914;28;20073;-82
2021/03/02 08:10:58;;;;;;;13.50;10.63;;;;;;;4.73;67.53;96745.97;4974319;28;20041;-76
2021/03/02 08:13:35;;;;;;;12.43;10.70;;;;;;;4.90;67.30;96750.34;4958249;28;20026;-70
2021/03/02 08:16:02;;;;;;;11.82;10.23;;;;;;;4.98;67.28;96743.13;4976525;28;20113;-77
2021/03/02 08:18:31;;;;;;;13.65;10.25;;;;;;;5.12;67.05;96755.88;4974404;28;20046;-73
2021/03/02 08:21:07;;;;;;;13.85;10.25;;;;;;;5.10;66.20;96750.00;4975629;28;20129;-75
2021/03/02 08:23:47;;;;;;;14.32;9.93;;;;;;;5.34;66.18;96747.38;4974761;28;20049;-79
2021/03/02 08:26:20;;;;;;;17.80;9.95;;;;;;;5.22;65.58;96719.16;4956781;28;20089;-71
2021/03/02 08:29:07;;;;;;;11.48;10.05;;;;;;;5.58;65.39;96754.22;4956708;28;20426;-75
2021/03/02 08:31:33;;;;;;;12.70;10.57;;;;;;;5.34;65.04;96710.44;4974176;28;20082;-76
2021/03/02 08:34:00;;;;;;;11.38;10.25;;;;;;;5.39;64.96;96702.63;4975922;28;20433;-70
2021/03/02 08:36:26;;;;;;;14.98;9.95;;;;;;;5.86;64.68;96748.19;4974177;28;20464;-72
2021/03/02 08:38:52;;;;;;;15.15;10.48;;;;;;;5.68;64.71;96712.19;4973058;28;20501;-72
2021/03/02 08:41:31;;;;;;;13.40;10.32;;;;;;;5.92;64.01;96735.91;4973663;28;20051;-73
2021/03/02 08:43:57;;;;;;;13.35;9.70;;;;;;;6.03;64.10;96732.41;4956936;28;20069;-72
2021/03/02 08:46:25;;;;;;;15.82;9.85;;;;;;;6.29;63.86;96759.31;4974929;28;20030;-80
2021/03/02 08:48:51;;;;;;;12.43;9.80;;;;;;;6.40;63.83;96755.84;4977044;28;20404;-80
2021/03/02 08:51:21;;;;;;;11.50;10.30;;;;;;;6.46;63.30;96760.16;4974568;28;20577;-79
2021/03/02 08:53:49;;;;;;;15.35;10.88;;;;;;;6.46;63.33;96736.38;4975345;28;20524;-80
2021/03/02 08:56:17;;;;;;;12.77;10.02;;;;;;;6.61;63.04;96749.84;4976631;28;20062;-81
2021/03/02 08:58:44;;;;;;;10.63;9.40;;;;;;;6.57;61.60;96746.06;4978412;28;20034;-80
2021/03/02 09:01:14;;;;;;;14.25;10.20;;;;;;;6.36;61.31;96733.56;4975632;28;20845;-82
2021/03/02 09:03:41;;;;;;;12.32;10.25;;;;;;;6.51;61.26;96753.13;4978470;28;20031;-82
2021/03/02 09:06:12;;;;;;;10.80;9.68;;;;;;;6.77;60.21;96746.41;4975247;28;20047;-80
2021/03/02 09:08:41;;;;;;;13.60;9.35;;;;;;;6.81;59.80;96745.91;4974523;28;20047;-82
2021/03/02 09:11:07;;;;;;;11.75;10.05;;;;;;;7.01;59.49;96744.41;4975000;28;20425;-83
2021/03/02 09:13:36;;;;;;;15.25;8.80;;;;;;;7.20;59.53;96738.84;4975624;28;20041;-84
2021/03/02 09:16:19;;;;;;;9.13;8.23;;;;;;;7.42;58.61;96752.13;4976534;28;20030;-84
2021/03/02 09:18:56;;;;;;;10.48;8.68;;;;;;;7.59;58.63;96747.59;4975214;28;20038;-83
2021/03/02 09:21:22;;;;;;;10.15;7.78;;;;;;;7.49;56.70;96737.66;4975844;28;20039;-81
2021/03/02 09:23:48;;;;;;;9.57;7.90;;;;;;;7.48;56.68;96736.06;4977154;28;20038;-84
2021/03/02 09:26:20;;;;;;;10.98;8.65;;;;;;;7.81;57.02;96751.06;4977466;28;20039;-83
2021/03/02 09:28:51;;;;;;;10.70;8.75;;;;;;;8.00;56.62;96753.41;4976479;28;20031;-84
2021/03/02 09:31:17;;;;;;;10.63;8.65;;;;;;;8.09;56.51;96741.31;4975356;28;20022;-82
2021/03/02 09:33:43;;;;;;;13.32;8.80;;;;;;;8.06;55.39;96734.66;4976685;28;20101;-81
2021/03/02 09:36:08;;;;;;;10.35;8.90;;;;;;;8.23;55.24;96734.56;4975276;28;20448;-81
2021/03/02 09:38:34;;;;;;;8.70;7.88;;;;;;;8.41;55.18;96743.25;4975220;28;20034;-83
2021/03/02 09:41:00;;;;;;;9.35;8.27;;;;;;;8.47;55.00;96744.91;4976131;28;20047;-82
2021/03/02 09:43:35;;;;;;;12.70;7.65;;;;;;;8.56;54.47;96738.91;4975362;28;20031;-84
2021/03/02 09:46:01;;;;;;;11.45;7.82;;;;;;;8.72;53.74;96749.66;4958819;28;20477;-81
2021/03/02 09:48:26;;;;;;;10.20;7.57;;;;;;;8.75;53.36;96742.00;4955742;28;20054;-80
2021/03/02 09:50:52;;;;;;;15.15;8.23;;;;;;;8.89;53.41;96747.66;4972868;28;20039;-79
2021/03/02 09:53:17;;;;;;;8.90;8.00;;;;;;;8.92;52.76;96749.81;4973651;28;20042;-77
2021/03/02 09:55:47;;;;;;;13.85;8.43;;;;;;;9.10;52.73;96756.56;4973762;28;20173;-77
2021/03/02 09:58:16;;;;;;;10.23;8.32;;;;;;;9.16;52.40;96752.09;4973110;28;20381;-79
2021/03/02 10:00:45;;;;;;;8.95;7.85;;;;;;;9.18;52.09;96750.81;4959416;28;20102;-81
2021/03/02 10:03:17;;;;;;;8.82;7.93;;;;;;;9.23;51.41;96755.34;4983532;28;20058;-81
2021/03/02 10:05:42;;;;;;;8.85;7.90;;;;;;;9.34;51.59;96768.44;4956105;28;20031;-74
2021/03/02 10:08:26;;;;;;;12.43;8.98;;;;;;;9.36;51.54;96733.63;4971286;28;20114;-72
2021/03/02 10:10:57;;;;;;;12.02;8.25;;;;;;;9.50;51.43;96741.97;4970976;28;20039;-70
2021/03/02 10:13:34;;;;;;;11.13;8.57;;;;;;;9.67;51.34;96750.53;4971952;28;20061;-67
2021/03/02 10:16:17;;;;;;;10.88;8.77;;;;;;;9.81;50.82;96750.88;4974121;28;20027;-69
2021/03/02 10:19:02;;;;;;;12.32;9.23;;;;;;;9.77;50.53;96737.31;4972425;28;20039;-72
2021/03/02 10:21:29;;;;;;;11.15;8.85;;;;;;;9.96;49.82;96763.44;4970819;28;20046;-72
2021/03/02 10:23:57;;;;;;;11.40;8.45;;;;;;;10.01;50.18;96752.81;4971311;28;20035;-73
2021/03/02 10:26:29;;;;;;;10.32;9.05;;;;;;;9.87;49.31;96760.47;4972122;28;20078;-71
2021/03/02 10:28:55;;;;;;;;;;;;;;;9.56;49.88;96756.88;4972460;28;20038;-76
2021/03/02 10:31:20;;;;;;;11.70;9.23;;;;;;;9.95;48.37;96746.69;4972305;28;20386;-76
2021/03/02 10:33:47;;;;;;;12.25;9.57;;;;;;;9.99;48.74;96758.41;4974446;28;20034;-76
2021/03/02 10:36:20;;;;;;;10.80;9.23;;;;;;;9.96;48.92;96766.09;4972228;28;20492;-74
2021/03/02 10:38:46;;;;;;;14.45;9.88;;;;;;;10.35;48.84;96766.53;4971738;28;20045;-74
2021/03/02 10:41:12;;;;;;;16.30;9.63;;;;;;;10.34;48.71;96771.06;4972160;28;20066;-76
2021/03/02 10:43:37;;;;;;;10.98;9.27;;;;;;;10.27;47.77;96775.81;4972002;28;20074;-76
2021/03/02 10:46:03;;;;;;;20.23;9.80;;;;;;;10.47;47.77;96763.63;4973849;28;20023;-76
2021/03/02 10:48:28;;;;;;;12.50;10.80;;;;;;;10.25;47.60;96738.06;4971561;28;20058;-76
2021/03/02 10:50:53;;;;;;;13.85;9.88;;;;;;;10.81;47.15;96767.41;4956520;28;20402;-76
2021/03/02 10:53:19;;;;;;;14.73;10.60;;;;;;;10.75;46.79;96755.16;4952702;28;20396;-71
2021/03/02 10:55:44;;;;;;;16.02;10.18;;;;;;;10.58;46.62;96742.09;4952702;28;20050;-81
2021/03/02 10:58:09;;;;;;;14.93;9.98;;;;;;;10.78;47.13;96757.28;4951045;28;20389;-71
2021/03/02 11:00:34;;;;;;;16.67;9.73;;;;;;;10.67;47.31;96753.03;4954413;28;20058;-72
2021/03/02 11:03:00;;;;;;;10.25;9.20;;;;;;;10.41;47.95;96758.31;4949747;28;20063;-74
2021/03/02 11:05:25;;;;;;;14.52;9.70;;;;;;;10.84;47.50;96750.91;4952103;28;20040;-71
2021/03/02 11:07:50;;;;;;;12.60;10.20;;;;;;;10.74;46.46;96716.28;4951965;28;20051;-72
2021/03/02 11:10:16;;;;;;;14.50;9.63;;;;;;;10.73;46.98;96733.31;4950918;28;20051;-72
2021/03/02 11:12:42;;;;;;;15.02;9.75;;;;;;;11.08;46.40;96745.03;4953908;28;20031;-73
2021/03/02 11:15:10;;;;;;;12.65;10.00;;;;;;;11.39;46.35;96749.25;4952050;28;20046;-73
2021/03/02 11:17:36;;;;;;;15.20;9.88;;;;;;;11.33;45.86;96733.56;4951669;28;20039;-72
2021/03/02 11:20:04;;;;;;;14.93;9.23;;;;;;;11.35;46.26;96748.19;4951714;28;20039;-73
2021/03/02 11:22:29;;;;;;;12.50;9.20;;;;;;;11.30;47.36;96715.44;4951718;28;29290;-71
2021/03/02 11:24:54;;;;;;;13.45;9.23;;;;;;;11.60;45.26;96712.69;4953848;28;20027;-72
2021/03/02 11:27:20;;;;;;;14.35;9.70;;;;;;;11.74;43.99;96728.94;4951631;28;20490;-72
2021/03/02 11:29:45;;;;;;;15.88;9.18;;;;;;;11.80;43.50;96730.50;4951671;28;20052;-71
2021/03/02 11:32:10;;;;;;;14.32;9.38;;;;;;;12.00;43.88;96731.53;4951559;28;20122;-72